createdAt,value
2019-04-10T00:01:51.724Z,24.93
2019-04-10T00:04:19.168Z,27.40
2019-04-10T00:06:46.480Z,24.93
2019-04-10T00:09:14.761Z,26.03
2019-04-10T00:11:43.162Z,26.17
2019-04-10T00:14:10.579Z,28.00
2019-04-10T00:16:38.329Z,26.97
2019-04-10T00:19:06.549Z,25.83
2019-04-10T00:21:34.002Z,27.73
2019-04-10T00:24:01.902Z,29.70
2019-04-10T00:26:29.930Z,30.67
2019-04-10T00:28:58.073Z,26.20
2019-04-10T00:31:26.338Z,25.67
2019-04-10T00:33:53.793Z,28.43
2019-04-10T00:36:21.132Z,30.07
2019-04-10T00:38:48.457Z,25.93
2019-04-10T00:41:16.358Z,32.93
2019-04-10T00:43:43.862Z,27.03
2019-04-10T00:46:11.645Z,28.43
2019-04-10T00:48:39.742Z,28.43
2019-04-10T00:51:07.101Z,26.80
2019-04-10T00:53:34.927Z,29.03
2019-04-10T00:56:02.264Z,24.43
2019-04-10T00:58:30.176Z,29.60
2019-04-10T01:00:57.655Z,25.27
2019-04-10T01:03:43.608Z,29.70
2019-04-10T01:06:11.833Z,28.33
2019-04-10T01:08:40.455Z,29.77
2019-04-10T01:11:08.576Z,27.43
2019-04-10T01:13:36.892Z,32.57
2019-04-10T01:16:05.031Z,31.30
2019-04-10T01:18:32.416Z,30.03
2019-04-10T01:20:59.952Z,26.50
2019-04-10T01:23:27.284Z,27.07
2019-04-10T01:25:54.778Z,25.97
2019-04-10T01:28:22.731Z,29.33
2019-04-10T01:30:50.746Z,25.53
2019-04-10T01:33:18.640Z,29.30
2019-04-10T01:35:46.715Z,31.47
2019-04-10T01:38:14.125Z,31.20
2019-04-10T01:40:41.441Z,28.97
2019-04-10T01:43:13.381Z,31.30
2019-04-10T01:45:38.129Z,31.07
2019-04-10T01:48:05.940Z,28.20
2019-04-10T01:50:35.095Z,29.80
2019-04-10T01:53:02.423Z,24.17
2019-04-10T01:55:31.778Z,27.60
2019-04-10T01:58:00.974Z,29.13
2019-04-10T02:00:30.103Z,27.93
2019-04-10T02:02:57.969Z,26.63
2019-04-10T02:05:25.471Z,26.97
2019-04-10T02:08:01.318Z,28.07
2019-04-10T02:10:21.906Z,27.70
2019-04-10T02:12:49.259Z,25.73
2019-04-10T02:15:17.632Z,28.03
2019-04-10T02:17:45.033Z,27.13
2019-04-10T02:20:12.572Z,28.30
2019-04-10T02:22:40.542Z,27.27
2019-04-10T02:25:07.917Z,28.60
2019-04-10T02:27:35.354Z,31.37
2019-04-10T02:30:02.771Z,27.67
2019-04-10T02:32:30.138Z,31.10
2019-04-10T02:34:58.160Z,27.87
2019-04-10T02:37:27.045Z,22.93
2019-04-10T02:39:59.918Z,31.53
2019-04-10T02:42:24.756Z,28.33
2019-04-10T02:44:52.321Z,27.93
2019-04-10T02:47:21.081Z,27.63
2019-04-10T02:49:49.229Z,25.17
2019-04-10T02:52:16.839Z,29.87
2019-04-10T02:54:45.881Z,26.20
2019-04-10T02:57:13.526Z,26.97
2019-04-10T02:59:40.977Z,26.57
2019-04-10T03:02:08.688Z,27.80
2019-04-10T03:04:37.245Z,26.27
2019-04-10T03:07:04.855Z,27.27
2019-04-10T03:09:49.452Z,24.03
2019-04-10T03:12:01.275Z,27.17
2019-04-10T03:14:28.681Z,25.63
2019-04-10T03:16:56.568Z,31.97
2019-04-10T03:19:23.983Z,25.40
2019-04-10T03:21:51.452Z,25.37
2019-04-10T03:24:19.157Z,25.03
2019-04-10T03:26:46.596Z,25.93
2019-04-10T03:29:14.008Z,24.50
2019-04-10T03:31:41.807Z,24.87
2019-04-10T03:34:22.408Z,24.83
2019-04-10T03:36:48.816Z,26.90
2019-04-10T03:39:17.286Z,29.63
2019-04-10T03:41:45.244Z,24.37
2019-04-10T03:44:12.683Z,26.40
2019-04-10T03:46:40.277Z,26.83
2019-04-10T03:49:07.760Z,26.30
2019-04-10T03:51:35.062Z,27.47
2019-04-10T03:54:02.634Z,25.77
2019-04-10T03:56:29.994Z,28.10
2019-04-10T03:58:57.852Z,28.83
2019-04-10T04:01:25.362Z,30.07
2019-04-10T04:03:53.041Z,25.57
2019-04-10T04:06:21.610Z,24.80
2019-04-10T04:09:01.562Z,27.43
2019-04-10T04:11:18.426Z,25.57
2019-04-10T04:13:45.895Z,28.43
2019-04-10T04:16:13.372Z,27.57
2019-04-10T04:18:41.477Z,30.33
2019-04-10T04:21:09.739Z,24.00
2019-04-10T04:23:38.183Z,27.97
2019-04-10T04:26:05.928Z,23.80
2019-04-10T04:28:34.254Z,31.67
2019-04-10T04:31:01.635Z,27.47
2019-04-10T04:33:29.859Z,32.50
2019-04-10T04:35:57.592Z,28.80
2019-04-10T04:38:25.615Z,30.43
2019-04-10T04:40:53.393Z,24.60
2019-04-10T04:43:21.732Z,28.70
2019-04-10T04:45:50.678Z,31.70
2019-04-10T04:48:19.500Z,33.00
2019-04-10T04:50:47.128Z,31.53
2019-04-10T04:53:14.546Z,30.20
2019-04-10T04:55:42.841Z,30.13
2019-04-10T04:58:10.343Z,28.90
2019-04-10T05:00:37.837Z,30.00
2019-04-10T05:03:05.204Z,31.83
2019-04-10T05:05:33.566Z,31.37
2019-04-10T05:08:02.926Z,31.83
2019-04-10T05:10:30.146Z,32.17
2019-04-10T05:12:57.852Z,34.33
2019-04-10T05:15:26.898Z,30.33
2019-04-10T05:17:55.599Z,35.50
2019-04-10T05:20:23.412Z,35.53
2019-04-10T05:22:52.422Z,28.90
2019-04-10T05:25:20.958Z,30.63
2019-04-10T05:27:49.009Z,29.17
2019-04-10T05:30:16.492Z,33.17
2019-04-10T05:32:43.843Z,27.47
2019-04-10T05:35:11.572Z,29.83
2019-04-10T05:37:40.084Z,29.67
2019-04-10T05:40:07.748Z,31.30
2019-04-10T05:42:35.282Z,33.03
2019-04-10T05:45:03.160Z,33.53
2019-04-10T05:47:30.515Z,29.17
2019-04-10T05:49:57.955Z,31.77
2019-04-10T05:52:25.390Z,33.83
2019-04-10T05:54:52.717Z,31.00
2019-04-10T05:57:20.237Z,26.03
2019-04-10T05:59:48.027Z,35.37
2019-04-10T06:02:17.688Z,30.17
2019-04-10T06:04:45.483Z,29.37
2019-04-10T06:07:13.023Z,28.63
2019-04-10T06:09:51.961Z,28.43
2019-04-10T06:12:09.844Z,25.50
2019-04-10T06:14:38.047Z,29.67
2019-04-10T06:17:05.982Z,27.90
2019-04-10T06:19:34.406Z,26.07
2019-04-10T06:22:02.952Z,25.10
2019-04-10T06:24:30.475Z,28.10
2019-04-10T06:26:57.844Z,28.47
2019-04-10T06:29:25.178Z,25.30
2019-04-10T06:31:52.806Z,25.67
2019-04-10T06:34:20.547Z,29.97
2019-04-10T06:36:47.975Z,24.50
2019-04-10T06:39:16.297Z,26.97
2019-04-10T06:41:43.801Z,25.57
2019-04-10T06:44:11.875Z,21.73
2019-04-10T06:46:40.373Z,28.30
2019-04-10T06:49:09.304Z,24.23
2019-04-10T06:51:37.557Z,24.30
2019-04-10T06:54:09.380Z,23.30
2019-04-10T06:56:33.975Z,19.80
2019-04-10T06:59:02.430Z,22.63
2019-04-10T07:01:40.479Z,20.87
2019-04-10T07:04:02.782Z,18.03
2019-04-10T07:06:46.241Z,20.13
2019-04-10T07:08:57.176Z,20.90
2019-04-10T07:11:28.407Z,21.30
2019-04-10T07:13:54.816Z,19.10
2019-04-10T07:16:26.614Z,17.80
2019-04-10T07:18:51.965Z,18.50
2019-04-10T07:21:20.109Z,18.67
2019-04-10T07:23:47.667Z,21.37
2019-04-10T07:26:25.576Z,17.77
2019-04-10T07:28:45.949Z,20.30
2019-04-10T07:31:13.113Z,20.60
2019-04-10T07:33:40.615Z,18.10
2019-04-10T07:36:11.402Z,20.43
2019-04-10T07:38:37.227Z,19.53
2019-04-10T07:41:11.159Z,20.50
2019-04-10T07:43:33.612Z,18.20
2019-04-10T07:46:00.938Z,15.27
2019-04-10T07:48:29.351Z,21.03
2019-04-10T07:50:57.046Z,19.10
2019-04-10T07:53:24.657Z,13.77
2019-04-10T07:56:02.276Z,16.90
2019-04-10T07:58:21.479Z,18.23
2019-04-10T08:00:49.722Z,14.77
2019-04-10T08:03:17.270Z,18.67
2019-04-10T08:05:44.606Z,15.17
2019-04-10T08:08:12.670Z,17.60
2019-04-10T08:10:42.329Z,16.53
2019-04-10T08:13:09.326Z,18.03
2019-04-10T08:15:37.607Z,13.93
2019-04-10T08:18:05.149Z,19.17
2019-04-10T08:20:32.754Z,15.27
2019-04-10T08:23:01.541Z,15.17
2019-04-10T08:25:29.187Z,14.63
2019-04-10T08:27:56.588Z,14.83
2019-04-10T08:30:24.035Z,16.03
2019-04-10T08:32:59.696Z,12.20
2019-04-10T08:35:20.912Z,18.33
2019-04-10T08:37:48.725Z,15.13
2019-04-10T08:40:16.393Z,18.80
2019-04-10T08:42:46.027Z,15.83
2019-04-10T08:45:13.306Z,17.13
2019-04-10T08:47:40.766Z,14.93
2019-04-10T08:50:08.258Z,16.90
2019-04-10T08:52:36.910Z,15.77
2019-04-10T08:55:05.863Z,15.27
2019-04-10T08:57:34.199Z,17.70
2019-04-10T09:00:02.689Z,17.10
2019-04-10T09:02:30.394Z,15.43
2019-04-10T09:04:57.984Z,16.27
2019-04-10T09:07:26.261Z,13.53
2019-04-10T09:09:54.176Z,17.17
2019-04-10T09:12:21.989Z,14.80
2019-04-10T09:14:49.640Z,14.43
2019-04-10T09:17:17.374Z,16.07
2019-04-10T09:19:44.973Z,18.80
2019-04-10T09:22:12.395Z,13.47
2019-04-10T09:24:42.492Z,17.87
2019-04-10T09:27:10.964Z,16.33
2019-04-10T09:29:38.350Z,16.30
2019-04-10T09:32:06.415Z,18.90
2019-04-10T09:34:34.067Z,19.90
2019-04-10T09:37:01.980Z,15.23
2019-04-10T09:39:29.621Z,18.00
2019-04-10T09:41:57.164Z,17.57
2019-04-10T09:44:26.395Z,18.00
2019-04-10T09:46:53.784Z,17.00
2019-04-10T09:49:31.665Z,14.70
2019-04-10T09:51:50.268Z,15.17
2019-04-10T09:54:22.270Z,18.43
2019-04-10T09:56:50.616Z,20.07
2019-04-10T09:59:18.091Z,15.83
2019-04-10T10:01:46.464Z,19.83
2019-04-10T10:04:13.950Z,16.90
2019-04-10T10:06:43.228Z,16.90
2019-04-10T10:09:10.743Z,15.77
2019-04-10T10:11:38.582Z,15.70
2019-04-10T10:14:06.247Z,14.97
2019-04-10T10:16:33.821Z,15.33
2019-04-10T10:19:01.618Z,13.73
2019-04-10T10:21:29.259Z,15.97
2019-04-10T10:23:56.861Z,14.47
2019-04-10T10:26:24.256Z,16.00
2019-04-10T10:28:52.492Z,18.83
2019-04-10T10:31:20.209Z,14.87
2019-04-10T10:33:48.100Z,16.30
2019-04-10T10:36:15.864Z,16.30
2019-04-10T10:38:43.412Z,18.80
2019-04-10T10:41:10.988Z,16.53
2019-04-10T10:43:38.335Z,18.43
2019-04-10T10:46:05.840Z,16.40
2019-04-10T10:48:33.158Z,12.63
2019-04-10T10:51:00.512Z,15.60
2019-04-10T10:53:28.269Z,16.10
2019-04-10T10:55:56.049Z,21.27
2019-04-10T10:58:23.845Z,17.43
2019-04-10T11:00:51.732Z,21.57
2019-04-10T11:03:20.327Z,20.70
2019-04-10T11:05:48.668Z,17.10
2019-04-10T11:08:17.257Z,16.00
2019-04-10T11:10:49.151Z,16.80
2019-04-10T11:13:15.029Z,19.20
2019-04-10T11:15:45.499Z,15.83
2019-04-10T11:18:11.563Z,21.07
2019-04-10T11:20:39.403Z,17.03
2019-04-10T11:23:07.057Z,18.77
2019-04-10T11:25:35.884Z,16.73
2019-04-10T11:28:04.012Z,14.03
2019-04-10T11:30:32.495Z,18.00
2019-04-10T11:33:00.121Z,19.47
2019-04-10T11:35:28.909Z,17.80
2019-04-10T11:40:26.739Z,16.47
2019-04-10T11:42:55.598Z,16.60
2019-04-10T11:45:25.490Z,13.60
2019-04-10T11:47:52.876Z,15.40
2019-04-10T11:50:21.844Z,17.43
2019-04-10T11:52:53.216Z,17.27
2019-04-10T11:55:20.989Z,17.97
2019-04-10T11:57:49.163Z,17.17
2019-04-10T12:00:20.387Z,15.77
2019-04-10T12:02:49.845Z,14.37
2019-04-10T12:08:09.542Z,20.80
2019-04-10T12:12:43.953Z,16.37
2019-04-10T12:15:12.253Z,23.37
2019-04-10T12:17:40.226Z,17.20
2019-04-10T12:20:07.606Z,19.40
2019-04-10T12:22:35.855Z,15.93
2019-04-10T12:25:04.726Z,18.67
2019-04-10T12:27:33.434Z,22.83
2019-04-10T12:30:00.915Z,16.17
2019-04-10T12:32:28.568Z,13.90
2019-04-10T12:34:56.292Z,19.10
2019-04-10T12:37:23.778Z,16.70
2019-04-10T12:39:51.156Z,18.77
2019-04-10T12:42:19.754Z,15.37
2019-04-10T12:44:47.208Z,13.97
2019-04-10T12:47:15.447Z,13.63
2019-04-10T12:49:43.550Z,16.80
2019-04-10T12:52:11.154Z,16.57
2019-04-10T12:54:40.469Z,16.00
2019-04-10T12:57:07.522Z,16.30
2019-04-10T12:59:35.337Z,20.83
2019-04-10T13:02:02.902Z,18.30
2019-04-10T13:04:30.360Z,14.93
2019-04-10T13:06:57.714Z,15.90
2019-04-10T13:09:26.162Z,15.17
2019-04-10T13:11:53.517Z,16.27
2019-04-10T13:14:22.211Z,17.00
2019-04-10T13:16:50.137Z,18.87
2019-04-10T13:19:18.705Z,17.37
2019-04-10T13:21:46.666Z,18.63
2019-04-10T13:24:14.241Z,17.53
2019-04-10T13:26:42.009Z,16.30
2019-04-10T13:29:09.533Z,18.57
2019-04-10T13:31:37.327Z,15.27
2019-04-10T13:34:04.950Z,18.43
2019-04-10T13:36:32.419Z,14.57
2019-04-10T13:39:00.244Z,13.07
2019-04-10T13:41:28.250Z,15.80
2019-04-10T13:43:55.721Z,19.37
2019-04-10T13:46:26.826Z,18.20
2019-04-10T13:48:54.218Z,15.97
2019-04-10T13:51:21.700Z,18.60
2019-04-10T13:53:49.962Z,17.17
2019-04-10T13:56:17.451Z,17.03
2019-04-10T13:58:44.932Z,16.03
2019-04-10T14:01:14.001Z,14.37
2019-04-10T14:03:42.876Z,18.63
2019-04-10T14:06:11.591Z,20.83
2019-04-10T14:08:58.440Z,15.83
2019-04-10T14:11:08.992Z,16.07
2019-04-10T14:13:36.531Z,24.03
2019-04-10T14:16:04.403Z,15.93
2019-04-10T14:18:32.754Z,13.97
2019-04-10T14:21:00.315Z,16.77
2019-04-10T14:23:28.707Z,17.73
2019-04-10T14:26:14.066Z,14.80
2019-04-10T14:28:42.987Z,22.43
2019-04-10T14:31:12.330Z,19.20
2019-04-10T14:33:39.956Z,17.20
2019-04-10T14:36:07.589Z,18.70
2019-04-10T14:38:35.118Z,19.00
2019-04-10T14:41:03.317Z,20.23
2019-04-10T14:43:30.720Z,19.03
2019-04-10T14:45:58.080Z,20.07
2019-04-10T14:48:25.485Z,16.97
2019-04-10T14:50:52.860Z,21.77
2019-04-10T14:53:20.161Z,25.97
2019-04-10T14:55:47.510Z,22.77
2019-04-10T14:58:22.747Z,20.73
2019-04-10T15:00:46.746Z,19.97
2019-04-10T15:03:14.254Z,22.47
2019-04-10T15:05:48.599Z,25.53
2019-04-10T15:08:11.314Z,32.50
2019-04-10T15:10:39.129Z,18.00
2019-04-10T15:13:09.990Z,19.97
2019-04-10T15:15:36.508Z,22.67
2019-04-10T15:18:04.585Z,21.73
2019-04-10T15:20:31.989Z,22.87
2019-04-10T15:22:59.348Z,22.80
2019-04-10T15:25:26.911Z,30.73
2019-04-10T15:27:54.567Z,20.90
2019-04-10T15:30:24.777Z,21.97
2019-04-10T15:32:52.206Z,19.90
2019-04-10T15:35:20.090Z,20.53
2019-04-10T15:37:47.540Z,19.37
2019-04-10T15:40:20.923Z,15.33
2019-04-10T15:42:44.034Z,20.43
2019-04-10T15:45:12.756Z,20.33
2019-04-10T15:47:49.239Z,17.23
2019-04-10T15:50:10.313Z,22.20
2019-04-10T15:52:37.716Z,21.47
2019-04-10T15:55:05.690Z,19.10
2019-04-10T15:57:45.759Z,21.13
2019-04-10T16:00:03.197Z,21.07
2019-04-10T16:02:30.737Z,19.73
2019-04-10T16:04:59.303Z,19.23
2019-04-10T16:07:27.487Z,19.37
2019-04-10T16:09:57.999Z,18.77
2019-04-10T16:12:26.937Z,18.03
2019-04-10T16:14:54.900Z,20.13
2019-04-10T16:17:31.294Z,22.40
2019-04-10T16:20:17.561Z,21.40
2019-04-10T16:22:46.825Z,18.00
2019-04-10T16:25:15.993Z,20.03
2019-04-10T16:27:43.489Z,17.43
2019-04-10T16:30:12.449Z,17.80
2019-04-10T16:32:40.001Z,20.07
2019-04-10T16:35:07.484Z,17.93
2019-04-10T16:37:35.605Z,19.00
2019-04-10T16:40:06.524Z,23.47
2019-04-10T16:42:32.776Z,22.67
2019-04-10T16:45:00.160Z,18.07
2019-04-10T16:47:28.252Z,20.97
2019-04-10T16:49:55.745Z,19.50
2019-04-10T16:52:23.254Z,24.13
2019-04-10T16:54:51.433Z,22.73
2019-04-10T16:57:18.919Z,23.80
2019-04-10T16:59:46.702Z,24.30
2019-04-10T17:02:14.100Z,23.43
2019-04-10T17:04:41.708Z,21.97
2019-04-10T17:07:10.517Z,23.57
2019-04-10T17:09:38.385Z,22.97
2019-04-10T17:12:06.575Z,24.73
2019-04-10T17:14:35.494Z,26.80
2019-04-10T17:17:04.130Z,24.50
2019-04-10T17:19:43.263Z,23.40
2019-04-10T17:22:00.700Z,24.27
2019-04-10T17:24:29.204Z,26.90
2019-04-10T17:26:57.318Z,27.63
2019-04-10T17:29:25.109Z,25.53
2019-04-10T17:31:52.998Z,26.00
2019-04-10T17:34:20.802Z,20.83
2019-04-10T17:36:49.434Z,21.03
2019-04-10T17:39:19.509Z,19.93
2019-04-10T17:41:48.165Z,20.37
2019-04-10T17:44:15.829Z,21.73
2019-04-10T17:46:43.654Z,19.73
2019-04-10T17:49:12.089Z,21.80
2019-04-10T17:51:39.547Z,21.33
2019-04-10T17:54:06.978Z,21.53
2019-04-10T17:56:34.304Z,26.60
2019-04-10T17:59:02.369Z,21.90
2019-04-10T18:01:29.888Z,23.60
2019-04-10T18:04:01.322Z,22.30
2019-04-10T18:06:26.388Z,20.67
2019-04-10T18:08:53.793Z,24.40
2019-04-10T18:11:22.336Z,24.33
2019-04-10T18:13:50.988Z,24.83
2019-04-10T18:16:18.512Z,23.87
2019-04-10T18:18:47.313Z,22.00
2019-04-10T18:21:15.122Z,19.07
2019-04-10T18:23:42.532Z,23.47
2019-04-10T18:26:10.751Z,23.17
2019-04-10T18:28:38.220Z,31.97
2019-04-10T18:31:05.566Z,28.63
2019-04-10T18:33:34.252Z,26.20
2019-04-10T18:36:02.880Z,32.00
2019-04-10T18:38:30.276Z,28.90
2019-04-10T18:41:02.261Z,24.80
2019-04-10T18:43:27.023Z,25.00
2019-04-10T18:46:06.114Z,24.33
2019-04-10T18:48:25.422Z,26.10
2019-04-10T18:50:53.776Z,30.43
2019-04-10T18:53:21.315Z,23.20
2019-04-10T18:55:49.007Z,24.37
2019-04-10T18:58:19.167Z,20.43
2019-04-10T19:01:05.123Z,22.17
2019-04-10T19:03:51.455Z,27.90
2019-04-10T19:06:16.908Z,25.43
2019-04-10T19:08:44.304Z,31.33
2019-04-10T19:11:21.336Z,24.90
2019-04-10T19:13:40.677Z,23.93
2019-04-10T19:16:08.809Z,26.07
2019-04-10T19:18:37.472Z,26.60
2019-04-10T19:21:05.316Z,26.90
2019-04-10T19:23:33.122Z,24.83
2019-04-10T19:26:00.574Z,29.40
2019-04-10T19:28:34.199Z,27.87
2019-04-10T19:31:09.613Z,28.10
2019-04-10T19:33:27.610Z,28.47
2019-04-10T19:35:55.195Z,28.97
2019-04-10T19:38:25.196Z,28.93
2019-04-10T19:40:52.054Z,26.80
2019-04-10T19:43:19.473Z,25.40
2019-04-10T19:45:48.014Z,29.67
2019-04-10T19:48:15.534Z,26.93
2019-04-10T19:50:43.720Z,25.90
2019-04-10T19:53:11.226Z,23.87
2019-04-10T19:55:38.584Z,25.30
2019-04-10T19:58:06.030Z,29.83
2019-04-10T20:00:35.086Z,27.67
2019-04-10T20:03:03.534Z,24.20
2019-04-10T20:05:31.638Z,29.93
2019-04-10T20:07:59.657Z,25.07
2019-04-10T20:10:27.579Z,25.93
2019-04-10T20:12:55.250Z,27.20
2019-04-10T20:15:22.665Z,26.47
2019-04-10T20:17:50.421Z,24.50
2019-04-10T20:20:17.778Z,30.40
2019-04-10T20:22:45.951Z,35.47
2019-04-10T20:25:14.298Z,30.47
2019-04-10T20:27:42.484Z,25.73
2019-04-10T20:30:10.142Z,28.50
2019-04-10T20:32:38.478Z,26.00
2019-04-10T20:35:05.908Z,28.00
2019-04-10T20:37:34.447Z,25.97
2019-04-10T20:40:01.990Z,30.93
2019-04-10T20:42:29.979Z,34.07
2019-04-10T20:44:57.483Z,38.67
2019-04-10T20:47:24.841Z,35.93
2019-04-10T20:49:53.321Z,29.83
2019-04-10T20:52:22.003Z,34.53
2019-04-10T20:54:49.507Z,24.47
2019-04-10T20:57:16.848Z,29.20
2019-04-10T20:59:44.620Z,28.43
2019-04-10T21:02:12.104Z,25.07
2019-04-10T21:04:40.699Z,25.87
2019-04-10T21:07:08.478Z,21.30
2019-04-10T21:09:36.176Z,27.00
2019-04-10T21:12:09.570Z,25.37
2019-04-10T21:14:33.686Z,29.53
2019-04-10T21:17:02.314Z,24.70
2019-04-10T21:19:29.754Z,29.13
2019-04-10T21:21:57.531Z,26.53
2019-04-10T21:24:25.284Z,27.83
2019-04-10T21:26:52.858Z,28.80
2019-04-10T21:29:38.375Z,23.00
2019-04-10T21:32:16.987Z,24.93
2019-04-10T21:34:46.759Z,25.37
2019-04-10T21:37:14.357Z,25.83
2019-04-10T21:39:41.787Z,24.73
2019-04-10T21:42:16.843Z,31.50
2019-04-10T21:44:38.352Z,27.17
2019-04-10T21:47:05.735Z,27.00
2019-04-10T21:49:33.505Z,22.77
2019-04-10T21:52:02.011Z,27.37
2019-04-10T21:54:29.551Z,22.23
2019-04-10T21:56:57.657Z,26.23
2019-04-10T21:59:25.151Z,25.20
2019-04-10T22:01:52.963Z,26.63
2019-04-10T22:04:21.064Z,24.57
2019-04-10T22:07:04.993Z,27.50
2019-04-10T22:09:41.006Z,24.63
2019-04-10T22:12:23.199Z,25.73
2019-04-10T22:14:39.686Z,32.60
2019-04-10T22:17:08.746Z,30.17
2019-04-10T22:19:37.992Z,29.17
2019-04-10T22:22:06.271Z,31.20
2019-04-10T22:24:34.085Z,31.37
2019-04-10T22:27:01.542Z,24.77
2019-04-10T22:29:28.888Z,21.23
2019-04-10T22:31:56.299Z,27.87
2019-04-10T22:34:23.932Z,29.20
2019-04-10T22:36:51.421Z,23.30
2019-04-10T22:39:18.857Z,25.30
2019-04-10T22:41:46.248Z,23.93
2019-04-10T22:44:13.867Z,24.07
2019-04-10T22:46:42.492Z,29.03
2019-04-10T22:49:10.411Z,22.47
2019-04-10T22:51:37.915Z,22.17
2019-04-10T22:54:06.103Z,24.80
2019-04-10T22:56:33.694Z,21.23
2019-04-10T22:59:01.714Z,18.83
2019-04-10T23:01:29.356Z,26.60
2019-04-10T23:03:57.413Z,23.67
2019-04-10T23:06:24.970Z,17.67
2019-04-10T23:08:52.280Z,18.90
2019-04-10T23:11:30.374Z,26.27
2019-04-10T23:13:48.678Z,22.87
2019-04-10T23:16:17.203Z,24.63
2019-04-10T23:18:45.665Z,20.20
2019-04-10T23:21:13.014Z,17.23
2019-04-10T23:23:41.197Z,23.63
2019-04-10T23:26:08.998Z,22.33
2019-04-10T23:28:36.376Z,23.47
2019-04-10T23:31:03.771Z,18.17
2019-04-10T23:33:33.025Z,20.90
2019-04-10T23:36:00.191Z,18.03
2019-04-10T23:38:27.775Z,14.37
2019-04-10T23:40:55.333Z,15.20
2019-04-10T23:43:24.135Z,19.03
2019-04-10T23:45:51.827Z,18.27
2019-04-10T23:48:20.371Z,19.43
2019-04-10T23:50:48.300Z,18.87
2019-04-10T23:53:16.170Z,21.10
2019-04-10T23:55:43.578Z,18.30
2019-04-10T23:58:10.994Z,17.50
